Halim Perdanakusuma International Airport
WIHH : now visible

Airfield :











YOU CAN JOIN US ON...

 
LOGIN :

Register | Disclaimer

   EN    FR    IT 

 









Legend :    VFR   Marginal VFR   IFR   Intensive IFR   Very Intensive IFR
Visi :
Ceiling :
>= 8 km
>= 3000ft
5 to 8 km
1000 to 3000 ft
1500m to 5 km
500 to 1000 ft
800 to 1500m
200 to 500 ft
< 800m
< 200 ft
Symbols :   Thunderstorms  Fog  Heavy snow  Heavy precipitations  Wind > 20 kt






- Airport Elevation : 84 ft
- IATA code : HLP


WIHH - Halim Perdanakusuma International

CURRENT METAR :
  • 310330Z 12006KT 6000 FEW020 32/24 Q1013 NOSIG

EXPIRED METARs :
  • 310300Z 10005KT 6000 FEW020 31/24 Q1013 NOSIG
  • 310230Z 09006KT 5000 HZ FEW020 31/24 Q1014 NOSIG
  • 310200Z 13004KT 4000 HZ FEW020 30/25 Q1014 NOSIG
  • 310130Z 17003KT 4000 HZ FEW020 29/25 Q1013 NOSIG
  • 310100Z 15003KT 3000 HZ FEW020 27/26 Q1013 NOSIG

TAF TAF WIHH
Valid from the 31 at 00:00 until the 01 at 00:00 UTC


302300Z 3100/0100 15008KT 6000 SCT020
TEMPO 3109/3112 23013KT 3000 -RA
BECMG 3113/3115 08004KT 5000 HZ
WIIF FIR / Asia



MET'MAP, your aeronautical weather chart ! - Copyright ORBIFLY December 2007 - Disclaimer

ORBIFLY MET'MAP TEAM :

Programming & Development : Alexandra Zaïnal
Concept & original design : Baudouin d'Aumeries
Assistance for programming : Marc-Olivier Méhu
Technical & hardware support : Manuel Goepfert

Contact : metmap@orbifly.com




SOURCES & CREDITS :

   NOAA       Earth
Advisory